createdAt,value
2023-05-25T00:00:41.763Z,14.83
2023-05-25T00:06:01.085Z,15.06
2023-05-25T00:08:31.290Z,15.02
2023-05-25T00:11:01.206Z,15.12
2023-05-25T00:13:30.591Z,15.18
2023-05-25T00:16:00.143Z,15.21
2023-05-25T00:18:32.790Z,15.23
2023-05-25T00:21:06.500Z,15.25
2023-05-25T00:23:36.032Z,15.17
2023-05-25T00:26:06.018Z,15.01
2023-05-25T00:31:15.834Z,14.82
2023-05-25T00:33:47.561Z,14.78
2023-05-25T00:36:17.025Z,14.66
2023-05-25T00:38:46.349Z,14.57
2023-05-25T00:41:17.682Z,14.57
2023-05-25T00:43:48.165Z,14.68
2023-05-25T00:46:17.651Z,14.73
2023-05-25T00:48:50.413Z,14.83
2023-05-25T00:51:19.665Z,14.96
2023-05-25T00:53:48.920Z,14.97
2023-05-25T00:56:22.913Z,14.98
2023-05-25T00:58:56.682Z,15.01
2023-05-25T01:01:27.937Z,15.12
2023-05-25T01:04:00.813Z,15.22
2023-05-25T01:06:34.487Z,15.26
2023-05-25T01:09:07.222Z,15.25
2023-05-25T01:11:46.703Z,15.31
2023-05-25T01:14:18.339Z,15.44
2023-05-25T01:16:47.766Z,15.66
2023-05-25T01:19:18.983Z,15.85
2023-05-25T01:21:59.111Z,16.03
2023-05-25T01:24:35.350Z,16.08
2023-05-25T01:27:10.473Z,16.10
2023-05-25T01:29:43.855Z,16.11
2023-05-25T01:32:15.024Z,15.88
2023-05-25T01:34:47.213Z,15.80
2023-05-25T01:37:23.111Z,15.77
2023-05-25T01:39:52.493Z,15.69
2023-05-25T01:42:23.411Z,15.66
2023-05-25T01:44:53.241Z,15.66
2023-05-25T01:47:28.182Z,15.67
2023-05-25T01:50:04.841Z,15.79
2023-05-25T01:52:44.805Z,15.89
2023-05-25T01:55:16.811Z,15.77
2023-05-25T02:00:33.360Z,15.87
2023-05-25T02:03:09.710Z,15.92
2023-05-25T02:05:46.231Z,15.95
2023-05-25T02:08:17.838Z,15.99
2023-05-25T02:10:47.373Z,16.03
2023-05-25T02:13:16.816Z,16.04
2023-05-25T02:15:47.349Z,16.08
2023-05-25T02:18:17.437Z,15.99
2023-05-25T02:20:47.209Z,16.12
2023-05-25T02:23:19.278Z,16.15
2023-05-25T02:25:48.715Z,16.16
2023-05-25T02:28:18.764Z,16.26
2023-05-25T02:30:48.131Z,16.23
2023-05-25T02:33:18.818Z,16.21
2023-05-25T02:35:48.921Z,16.28
2023-05-25T02:41:00.683Z,16.39
2023-05-25T02:43:30.361Z,16.41
2023-05-25T02:45:59.790Z,16.51
2023-05-25T02:48:29.064Z,16.68
2023-05-25T02:51:03.634Z,16.84
2023-05-25T02:53:36.212Z,17.04
2023-05-25T02:56:06.115Z,17.38
2023-05-25T02:58:36.908Z,17.61
2023-05-25T03:01:18.147Z,17.78
2023-05-25T03:03:53.124Z,17.93
2023-05-25T03:06:31.803Z,18.03
2023-05-25T03:09:09.387Z,17.99
2023-05-25T03:11:45.386Z,18.07
2023-05-25T03:14:24.853Z,18.19
2023-05-25T03:17:04.687Z,18.17
2023-05-25T03:19:34.029Z,18.28
2023-05-25T03:22:05.004Z,18.39
2023-05-25T03:24:48.006Z,18.61
2023-05-25T03:27:17.493Z,18.86
2023-05-25T03:29:46.806Z,19.04
2023-05-25T03:32:16.674Z,19.39
2023-05-25T03:34:46.357Z,19.78
2023-05-25T03:37:18.612Z,19.90
2023-05-25T03:39:49.981Z,19.80
2023-05-25T03:42:19.707Z,19.77
2023-05-25T03:44:49.060Z,19.79
2023-05-25T03:47:23.550Z,20.00
2023-05-25T03:49:53.860Z,20.23
2023-05-25T03:52:23.256Z,20.29
2023-05-25T03:54:54.560Z,20.21
2023-05-25T03:57:23.996Z,20.26
2023-05-25T03:59:54.787Z,20.20
2023-05-25T04:02:24.446Z,20.29
2023-05-25T04:04:53.998Z,20.64
2023-05-25T04:07:23.604Z,20.95
2023-05-25T04:09:57.807Z,21.23
2023-05-25T04:12:27.482Z,21.19
2023-05-25T04:14:57.503Z,21.33
2023-05-25T04:17:32.095Z,21.46
2023-05-25T04:20:02.038Z,21.74
2023-05-25T04:22:38.635Z,21.84
2023-05-25T04:25:11.407Z,21.99
2023-05-25T04:27:42.002Z,22.06
2023-05-25T04:30:13.144Z,22.33
2023-05-25T04:36:01.737Z,22.85
2023-05-25T04:38:34.184Z,22.93
2023-05-25T04:41:06.341Z,22.61
2023-05-25T04:43:35.693Z,22.53
2023-05-25T04:46:07.602Z,21.94
2023-05-25T04:48:38.827Z,21.61
2023-05-25T04:51:08.430Z,21.40
2023-05-25T04:53:37.981Z,21.19
2023-05-25T04:56:09.713Z,21.09
2023-05-25T04:58:39.135Z,21.03
2023-05-25T05:01:14.109Z,21.20
2023-05-25T05:03:43.610Z,21.33
2023-05-25T05:06:25.431Z,21.57
2023-05-25T05:08:55.606Z,21.43
2023-05-25T05:14:14.000Z,21.24
2023-05-25T05:16:49.656Z,21.11
2023-05-25T05:19:19.135Z,21.07
2023-05-25T05:21:48.997Z,21.12
2023-05-25T05:24:25.377Z,21.26
2023-05-25T05:26:59.228Z,21.22
2023-05-25T05:29:45.719Z,21.13
2023-05-25T05:32:15.604Z,21.02
2023-05-25T05:34:45.164Z,20.78
2023-05-25T05:37:38.773Z,20.66
2023-05-25T05:40:10.853Z,20.47
2023-05-25T05:42:50.376Z,20.37
2023-05-25T05:45:19.938Z,20.24
2023-05-25T05:47:49.400Z,20.09
2023-05-25T05:50:19.570Z,19.94
2023-05-25T05:52:49.138Z,19.94
2023-05-25T05:55:19.643Z,19.94
2023-05-25T05:57:57.658Z,19.90
2023-05-25T06:00:27.424Z,19.96
2023-05-25T06:02:57.019Z,19.88
2023-05-25T06:05:33.415Z,19.81
2023-05-25T06:08:09.783Z,19.71
2023-05-25T06:10:40.418Z,19.72
2023-05-25T06:13:11.860Z,19.67
2023-05-25T06:15:41.538Z,19.83
2023-05-25T06:18:15.863Z,19.65
2023-05-25T06:20:51.313Z,19.58
2023-05-25T06:23:20.687Z,19.53
2023-05-25T06:25:50.433Z,19.52
2023-05-25T06:28:22.018Z,19.58
2023-05-25T06:30:53.319Z,19.61
2023-05-25T06:33:23.189Z,19.70
2023-05-25T06:35:56.349Z,19.85
2023-05-25T06:38:45.013Z,20.03
2023-05-25T06:41:15.257Z,20.13
2023-05-25T06:43:48.301Z,20.25
2023-05-25T06:46:31.402Z,20.34
2023-05-25T06:49:02.684Z,20.45
2023-05-25T06:51:32.951Z,20.47
2023-05-25T06:54:02.390Z,20.47
2023-05-25T06:56:31.745Z,20.29
2023-05-25T06:59:02.956Z,20.24
2023-05-25T07:01:32.479Z,20.20
2023-05-25T07:04:01.844Z,20.15
2023-05-25T07:06:31.562Z,20.07
2023-05-25T07:09:00.952Z,20.07
2023-05-25T07:11:35.735Z,19.97
2023-05-25T07:14:07.232Z,20.03
2023-05-25T07:16:36.545Z,20.22
2023-05-25T07:19:05.930Z,19.92
2023-05-25T07:21:41.296Z,19.68
2023-05-25T07:24:10.631Z,19.63
2023-05-25T07:26:45.618Z,19.62
2023-05-25T07:29:17.598Z,19.69
2023-05-25T07:31:52.702Z,19.67
2023-05-25T07:34:22.458Z,19.69
2023-05-25T07:36:51.851Z,19.73
2023-05-25T07:39:21.223Z,19.74
2023-05-25T07:41:50.577Z,19.80
2023-05-25T07:44:21.755Z,19.84
2023-05-25T07:46:51.336Z,19.92
2023-05-25T07:49:20.879Z,20.05
2023-05-25T07:51:56.368Z,20.11
2023-05-25T07:54:25.760Z,20.25
2023-05-25T07:56:55.308Z,20.13
2023-05-25T07:59:28.329Z,20.20
2023-05-25T08:01:57.905Z,20.28
2023-05-25T08:04:27.484Z,20.29
2023-05-25T08:07:02.433Z,20.37
2023-05-25T08:09:31.976Z,20.40
2023-05-25T08:12:23.933Z,20.44
2023-05-25T08:14:53.871Z,20.50
2023-05-25T08:17:28.794Z,20.34
2023-05-25T08:20:03.493Z,20.15
2023-05-25T08:22:34.636Z,19.96
2023-05-25T08:25:06.510Z,19.78
2023-05-25T08:27:36.470Z,19.63
2023-05-25T08:30:10.070Z,19.58
2023-05-25T08:32:39.552Z,19.39
2023-05-25T08:35:09.741Z,19.26
2023-05-25T08:40:17.799Z,19.18
2023-05-25T08:42:47.874Z,19.26
2023-05-25T08:48:00.760Z,19.38
2023-05-25T08:50:38.027Z,19.27
2023-05-25T08:53:20.951Z,19.03
2023-05-25T08:55:53.323Z,19.01
2023-05-25T08:58:30.539Z,18.91
2023-05-25T09:01:07.223Z,18.80
2023-05-25T09:03:37.893Z,18.88
2023-05-25T09:06:07.589Z,18.80
2023-05-25T09:08:44.252Z,18.91
2023-05-25T09:11:16.964Z,18.86
2023-05-25T09:13:49.085Z,19.03
2023-05-25T09:16:21.695Z,19.26
2023-05-25T09:21:28.570Z,19.51
2023-05-25T09:24:09.266Z,19.66
2023-05-25T09:26:38.858Z,19.83
2023-05-25T09:29:08.279Z,20.00
2023-05-25T09:31:41.018Z,20.17
2023-05-25T09:34:14.226Z,20.33
2023-05-25T09:36:48.999Z,20.41
2023-05-25T09:39:18.955Z,20.29
2023-05-25T09:41:48.451Z,20.16
2023-05-25T09:44:24.233Z,20.26
2023-05-25T09:47:02.418Z,20.37
2023-05-25T09:49:38.615Z,20.55
2023-05-25T09:52:09.204Z,20.74
2023-05-25T09:54:39.163Z,20.88
2023-05-25T09:57:08.648Z,21.08
2023-05-25T09:59:38.758Z,21.04
2023-05-25T10:02:10.928Z,21.15
2023-05-25T10:04:40.974Z,20.95
2023-05-25T10:07:22.750Z,20.90
2023-05-25T10:09:54.426Z,20.95
2023-05-25T10:12:26.916Z,20.94
2023-05-25T10:14:57.576Z,21.11
2023-05-25T10:17:38.526Z,21.42
2023-05-25T10:20:10.908Z,21.48
2023-05-25T10:25:34.032Z,21.44
2023-05-25T10:30:42.984Z,21.29
2023-05-25T10:33:21.939Z,21.13
2023-05-25T10:36:09.287Z,21.20
2023-05-25T10:38:49.395Z,21.32
2023-05-25T10:41:19.991Z,21.22
2023-05-25T10:43:50.298Z,21.00
2023-05-25T10:46:27.000Z,20.99
2023-05-25T10:49:07.000Z,21.09
2023-05-25T10:51:40.434Z,21.07
2023-05-25T10:54:18.650Z,20.93
2023-05-25T10:57:16.903Z,21.08
2023-05-25T10:59:51.336Z,20.96
2023-05-25T11:02:24.204Z,20.89
2023-05-25T11:08:14.539Z,21.39
2023-05-25T11:10:55.816Z,21.77
2023-05-25T11:13:35.545Z,21.56
2023-05-25T11:16:20.516Z,21.73
2023-05-25T11:19:01.281Z,21.84
2023-05-25T11:21:49.086Z,21.99
2023-05-25T11:24:19.847Z,22.16
2023-05-25T11:26:59.273Z,22.09
2023-05-25T11:29:33.254Z,22.24
2023-05-25T11:32:03.101Z,22.54
2023-05-25T11:34:34.021Z,22.69
2023-05-25T11:37:06.212Z,22.76
2023-05-25T11:39:35.850Z,22.55
2023-05-25T11:44:47.806Z,21.83
2023-05-25T11:47:28.392Z,21.80
2023-05-25T11:49:58.944Z,21.87
2023-05-25T11:52:35.751Z,22.26
2023-05-25T11:55:14.034Z,22.57
2023-05-25T11:57:43.871Z,22.66
2023-05-25T12:00:27.031Z,22.36
2023-05-25T12:02:57.496Z,22.18
2023-05-25T12:05:27.033Z,22.31
2023-05-25T12:07:58.307Z,21.96
2023-05-25T12:10:27.555Z,21.90
2023-05-25T12:12:58.200Z,21.66
2023-05-25T12:15:29.511Z,21.22
2023-05-25T12:17:58.862Z,21.37
2023-05-25T12:20:28.949Z,21.33
2023-05-25T12:25:49.734Z,21.98
2023-05-25T12:28:27.257Z,21.87
2023-05-25T12:30:57.167Z,21.48
2023-05-25T12:33:31.648Z,21.44
2023-05-25T12:36:01.123Z,21.54
2023-05-25T12:38:32.601Z,21.34
2023-05-25T12:41:07.863Z,21.56
2023-05-25T12:51:20.489Z,21.23
2023-05-25T12:53:54.032Z,21.09
2023-05-25T12:56:29.230Z,20.73
2023-05-25T12:58:58.558Z,20.57
2023-05-25T13:04:03.497Z,20.34
2023-05-25T13:06:35.747Z,20.20
2023-05-25T13:11:57.969Z,20.02
2023-05-25T13:14:32.790Z,19.90
2023-05-25T13:17:02.175Z,19.82
2023-05-25T13:19:31.633Z,19.83
2023-05-25T13:22:13.734Z,19.85
2023-05-25T13:24:43.339Z,19.76
2023-05-25T13:27:12.615Z,19.79
2023-05-25T13:29:47.129Z,19.71
2023-05-25T13:32:17.055Z,19.79
2023-05-25T13:34:47.040Z,19.81
2023-05-25T13:37:23.708Z,19.67
2023-05-25T13:39:53.212Z,19.51
2023-05-25T13:42:23.635Z,19.37
2023-05-25T13:44:53.044Z,19.42
2023-05-25T13:47:22.569Z,19.44
2023-05-25T13:49:57.797Z,19.37
2023-05-25T13:52:34.142Z,19.17
2023-05-25T13:55:04.114Z,19.16
2023-05-25T13:57:33.725Z,19.25
2023-05-25T14:00:03.353Z,19.50
2023-05-25T14:02:37.147Z,19.60
2023-05-25T14:05:11.998Z,19.58
2023-05-25T14:07:44.339Z,19.63
2023-05-25T14:10:19.002Z,19.59
2023-05-25T14:12:50.053Z,19.58
2023-05-25T14:15:24.688Z,19.67
2023-05-25T14:18:14.921Z,19.74
2023-05-25T14:20:45.181Z,19.81
2023-05-25T14:23:18.933Z,19.87
2023-05-25T14:25:49.630Z,19.79
2023-05-25T14:28:19.235Z,19.90
2023-05-25T14:31:01.899Z,20.09
2023-05-25T14:33:31.470Z,20.32
2023-05-25T14:36:00.944Z,20.63
2023-05-25T14:38:37.480Z,20.72
2023-05-25T14:41:07.090Z,20.66
2023-05-25T14:43:36.549Z,20.66
2023-05-25T14:46:22.462Z,20.55
2023-05-25T14:48:52.183Z,20.49
2023-05-25T14:51:22.574Z,20.32
2023-05-25T14:53:54.792Z,20.14
2023-05-25T14:59:10.760Z,19.73
2023-05-25T15:01:40.393Z,19.65
2023-05-25T15:04:10.099Z,19.50
2023-05-25T15:06:44.769Z,19.26
2023-05-25T15:09:21.128Z,19.10
2023-05-25T15:11:50.585Z,19.09
2023-05-25T15:14:19.978Z,19.17
2023-05-25T15:16:59.721Z,19.28
2023-05-25T15:19:30.754Z,19.24
2023-05-25T15:22:00.362Z,19.17
2023-05-25T15:24:31.826Z,19.08
2023-05-25T15:27:15.732Z,19.24
2023-05-25T15:29:45.604Z,19.18
2023-05-25T15:32:17.521Z,18.92
2023-05-25T15:34:47.687Z,19.07
2023-05-25T15:37:22.167Z,19.23
2023-05-25T15:39:58.559Z,19.24
2023-05-25T15:42:29.169Z,19.28
2023-05-25T15:44:58.553Z,19.35
2023-05-25T15:47:42.859Z,19.29
2023-05-25T15:52:49.104Z,19.35
2023-05-25T15:55:20.955Z,19.32
2023-05-25T15:57:51.082Z,19.20
2023-05-25T16:00:21.253Z,19.07
2023-05-25T16:02:50.817Z,18.99
2023-05-25T16:05:20.218Z,18.97
2023-05-25T16:07:49.679Z,18.84
2023-05-25T16:10:21.245Z,18.93
2023-05-25T16:12:50.686Z,18.94
2023-05-25T16:15:22.596Z,19.02
2023-05-25T16:18:04.033Z,19.18
2023-05-25T16:20:33.867Z,19.11
2023-05-25T16:23:18.100Z,18.86
2023-05-25T16:25:56.217Z,18.78
2023-05-25T16:28:25.963Z,18.73
2023-05-25T16:30:55.303Z,18.58
2023-05-25T16:33:24.633Z,18.55
2023-05-25T16:35:54.228Z,18.55
2023-05-25T16:38:23.530Z,18.57
2023-05-25T16:40:53.059Z,18.62
2023-05-25T16:43:26.488Z,18.60
2023-05-25T16:46:02.296Z,18.85
2023-05-25T16:48:31.914Z,18.97
2023-05-25T16:51:01.883Z,19.25
2023-05-25T16:56:13.859Z,19.73
2023-05-25T16:58:45.257Z,19.70
2023-05-25T17:01:15.107Z,19.66
2023-05-25T17:03:44.635Z,19.61
2023-05-25T17:06:15.547Z,19.41
2023-05-25T17:08:50.103Z,18.93
2023-05-25T17:11:19.443Z,18.51
2023-05-25T17:13:57.163Z,18.24
2023-05-25T17:16:26.774Z,18.03
2023-05-25T17:18:56.134Z,17.79
2023-05-25T17:21:25.705Z,17.63
2023-05-25T17:23:55.416Z,17.54
2023-05-25T17:26:25.574Z,17.44
2023-05-25T17:28:58.871Z,17.26
2023-05-25T17:34:14.562Z,17.00
2023-05-25T17:36:49.269Z,16.74
2023-05-25T17:39:24.116Z,16.93
2023-05-25T17:41:53.497Z,16.87
2023-05-25T17:44:29.852Z,16.81
2023-05-25T17:46:59.455Z,16.72
2023-05-25T17:49:28.847Z,16.68
2023-05-25T17:51:58.481Z,16.58
2023-05-25T17:54:27.826Z,16.42
2023-05-25T17:57:02.389Z,16.43
2023-05-25T17:59:33.884Z,16.22
2023-05-25T18:02:03.547Z,16.14
2023-05-25T18:04:32.978Z,16.11
2023-05-25T18:07:08.347Z,16.05
2023-05-25T18:09:37.931Z,15.97
2023-05-25T18:14:45.596Z,15.63
2023-05-25T18:17:15.120Z,15.72
2023-05-25T18:19:44.675Z,15.71
2023-05-25T18:22:14.181Z,15.66
2023-05-25T18:24:51.419Z,15.57
2023-05-25T18:27:21.369Z,15.54
2023-05-25T18:29:53.058Z,15.53
2023-05-25T18:32:22.472Z,15.49
2023-05-25T18:34:52.155Z,15.42
2023-05-25T18:37:22.947Z,15.46
2023-05-25T18:39:52.802Z,15.44
2023-05-25T18:42:30.510Z,15.45
2023-05-25T18:45:03.034Z,15.49
2023-05-25T18:47:34.625Z,15.45
2023-05-25T18:50:21.632Z,15.44
2023-05-25T18:52:51.594Z,15.33
2023-05-25T18:55:21.385Z,15.21
2023-05-25T18:57:51.715Z,15.07
2023-05-25T19:00:23.569Z,14.99
2023-05-25T19:02:52.739Z,15.02
2023-05-25T19:05:22.560Z,14.89
2023-05-25T19:08:02.811Z,14.87
2023-05-25T19:10:32.234Z,14.81
2023-05-25T19:13:01.702Z,14.94
2023-05-25T19:15:38.291Z,15.05
2023-05-25T19:18:13.122Z,15.13
2023-05-25T19:20:45.585Z,15.13
2023-05-25T19:23:15.402Z,15.22
2023-05-25T19:28:25.434Z,15.29
2023-05-25T19:30:56.752Z,15.31
2023-05-25T19:33:26.225Z,15.23
2023-05-25T19:35:55.920Z,15.28
2023-05-25T19:41:02.467Z,15.22
2023-05-25T19:43:31.939Z,15.24
2023-05-25T19:46:03.801Z,15.29
2023-05-25T19:48:33.788Z,15.41
2023-05-25T19:51:03.574Z,15.32
2023-05-25T19:53:33.086Z,15.46
2023-05-25T19:56:03.121Z,15.54
2023-05-25T19:58:32.695Z,15.57
2023-05-25T20:01:04.293Z,15.55
2023-05-25T20:03:33.669Z,15.58
2023-05-25T20:06:03.234Z,15.48
2023-05-25T20:08:33.082Z,15.41
2023-05-25T20:11:02.501Z,15.36
2023-05-25T20:13:32.410Z,15.29
2023-05-25T20:16:03.985Z,15.31
2023-05-25T20:18:33.631Z,15.30
2023-05-25T20:21:03.129Z,15.34
2023-05-25T20:23:37.685Z,15.28
2023-05-25T20:26:13.241Z,15.33
2023-05-25T20:31:19.711Z,15.36
2023-05-25T20:33:49.154Z,15.34
2023-05-25T20:36:18.773Z,15.23
2023-05-25T20:38:48.735Z,15.36
2023-05-25T20:41:18.479Z,15.35
2023-05-25T20:43:53.095Z,15.36
2023-05-25T20:46:29.464Z,15.30
2023-05-25T20:48:59.157Z,15.23
2023-05-25T20:51:28.519Z,15.22
2023-05-25T20:53:58.049Z,15.24
2023-05-25T20:56:28.576Z,15.25
2023-05-25T20:59:03.081Z,15.24
2023-05-25T21:01:34.943Z,15.22
2023-05-25T21:04:04.690Z,15.16
2023-05-25T21:06:34.156Z,15.08
2023-05-25T21:11:38.561Z,14.98
2023-05-25T21:14:07.913Z,15.00
2023-05-25T21:16:45.540Z,15.05
2023-05-25T21:19:14.461Z,15.09
2023-05-25T21:21:44.178Z,15.00
2023-05-25T21:24:13.590Z,14.97
2023-05-25T21:26:42.918Z,14.97
2023-05-25T21:29:18.598Z,14.94
2023-05-25T21:31:50.446Z,14.91
2023-05-25T21:34:19.866Z,14.91
2023-05-25T21:36:49.250Z,14.92
2023-05-25T21:39:18.711Z,14.92
2023-05-25T21:41:53.399Z,14.95
2023-05-25T21:44:22.938Z,14.99
2023-05-25T21:46:59.300Z,14.98
2023-05-25T21:49:28.704Z,14.97
2023-05-25T21:51:58.171Z,14.97
2023-05-25T21:54:32.570Z,14.92
2023-05-25T21:57:02.080Z,14.92
2023-05-25T21:59:31.578Z,14.93
2023-05-25T22:02:02.928Z,14.92
2023-05-25T22:04:32.423Z,14.92
2023-05-25T22:07:01.779Z,14.87
2023-05-25T22:09:31.392Z,14.91
2023-05-25T22:12:02.085Z,14.95
2023-05-25T22:14:36.678Z,14.99
2023-05-25T22:17:08.953Z,14.99
2023-05-25T22:19:39.743Z,14.99
2023-05-25T22:22:10.524Z,14.95
2023-05-25T22:24:45.962Z,14.96
2023-05-25T22:27:15.557Z,14.96
2023-05-25T22:29:45.628Z,14.95
2023-05-25T22:34:57.532Z,14.95
2023-05-25T22:37:26.859Z,14.94
2023-05-25T22:39:57.399Z,14.90
2023-05-25T22:42:27.071Z,14.89
2023-05-25T22:44:56.405Z,14.86
2023-05-25T22:47:27.874Z,14.80
2023-05-25T22:49:57.254Z,14.65
2023-05-25T22:52:26.703Z,14.47
2023-05-25T22:55:01.075Z,14.34
2023-05-25T22:57:34.512Z,14.45
2023-05-25T23:00:04.174Z,14.63
2023-05-25T23:02:41.025Z,14.75
2023-05-25T23:05:11.456Z,14.76
2023-05-25T23:07:49.914Z,14.77
2023-05-25T23:10:19.858Z,14.74
2023-05-25T23:12:50.524Z,14.69
2023-05-25T23:17:59.475Z,14.65
2023-05-25T23:20:28.890Z,14.67
2023-05-25T23:22:58.189Z,14.68
2023-05-25T23:25:27.626Z,14.60
2023-05-25T23:27:56.887Z,14.72
2023-05-25T23:30:26.187Z,14.71
2023-05-25T23:32:57.211Z,14.73
2023-05-25T23:35:29.625Z,14.75
2023-05-25T23:38:01.234Z,14.77
2023-05-25T23:40:31.272Z,14.79
2023-05-25T23:43:00.917Z,14.83
2023-05-25T23:45:45.299Z,14.78
2023-05-25T23:48:15.511Z,14.79
2023-05-25T23:50:46.964Z,14.74
2023-05-25T23:53:16.560Z,14.71
2023-05-25T23:55:46.199Z,14.63
2023-05-25T23:58:30.817Z,14.71
